x

South Huron - 43nm East Of Oscoda, Mi (45008) Wave Buoy

11:50am - Wed 30th Jul 2014 All times are CDT. -5 hours from GMT.

  • Sig Wave height 1.3ft
  • Swell Direction
  • Peak Period 4s
  • Average Period 3s
  • Wind
    11mph
  • Sea Temp 61°f
  • Air Temp 58°f
  • Sea Pressure 1015.3mb
  • South Huron - 43nm East Of Oscoda, Mi
  • South Huron - 43nm East Of Oscoda, Mi

More Historic Weather Station data

Upgrade to MSW Pro to gain access to the past 30 days of data for over 8000 Wavebouys and Weather Stations around the globe.

Join Pro

Comparision Forecast

View Surf forecast
   
Wed 07/30 11:50am 1.3ft 4s 3s 11
mph
1015.3mb 61f 58f
10:50am 1.3ft 4s 3s 9 13 mph 1015.2mb 60f 58f
9:50am 1.6ft 4s 3s 11
mph
1014.9mb 60f 58f
8:50am 1.3ft 4s 3s 11 13 mph 1014.5mb 60f 58f
7:50am 1.3ft 3s 3s 16 18 mph 1014.1mb 61f 58f
6:50am 1ft 3s 3s 13 16 mph 1013.8mb 61f 58f
5:50am 0.7ft  -  3s 13 16 mph 1013.3mb 61f 59f
4:50am 0.3ft  -  3s 11 13 mph 1013.1mb 61f 60f
3:50am 0.7ft  -  3s 4 7 mph 1012.8mb 61f 61f
2:50am 0.7ft  -  3s 4
mph
1012.7mb 61f 61f
1:50am 0.7ft  -  3s 2 4 mph 1012.9mb 61f 61f
12:50am 0.7ft  -  3s 4
mph
1013mb 61f 61f
Tue 07/29 11:50pm 0.7ft  -  3s 4
mph
1012.9mb 61f 61f
10:50pm 0.7ft  -  3s 4
mph
1012.8mb 61f 61f
9:50pm 0.7ft  -  3s 4 7 mph 1012.7mb 61f 61f
8:50pm 1ft 5s 4s 7
mph
1012.9mb 61f 61f
7:50pm 1ft 5s 4s 4
mph
1012.6mb 61f 62f
6:50pm 0.7ft  -  3s 4 7 mph 1012.6mb 61f 62f
5:50pm 1ft 3s 3s 4 7 mph 1012.6mb 61f 62f
4:50pm 1ft 3s 3s 4
mph
1012.3mb 61f 62f
3:50pm 1ft 3s 3s 4
mph
1012.4mb 61f 61f
2:50pm 1ft 4s 3s 9
mph
1012.6mb 61f 61f
1:50pm 1.3ft 3s 3s 9 11 mph 1012.7mb 60f 60f
12:50pm 1.3ft 3s 3s 11 13 mph 1012.9mb 61f 60f
11:50am 1.6ft 3s 3s 11 13 mph 1012.9mb 61f 60f
10:50am 1.3ft 3s 3s 13 16 mph 1012.8mb 61f 60f
9:50am 1.3ft 3s 3s 11 13 mph 1013.2mb 60f 60f
8:50am 1ft 3s 3s 11 13 mph 1013mb 60f 60f
7:50am 1.3ft 3s 3s 11 13 mph 1012.9mb 61f 60f
6:50am 1.3ft 3s 3s 11 13 mph 1012.8mb 61f 59f
5:50am 1.3ft 3s 3s 13 16 mph 1012.5mb 61f 59f
4:50am 1.3ft 4s 3s 11 13 mph 1012.5mb 61f 59f
3:50am 1.3ft 5s 3s 9 13 mph 1012.4mb 61f 59f
2:50am 1.6ft 4s 3s 11 13 mph 1012.6mb 61f 60f
1:50am 2ft 5s 4s 13 16 mph 1012.7mb 61f 60f
12:50am 2ft 5s 4s 13 16 mph 1012.9mb 61f 60f
Mon 07/28 11:50pm 2ft 5s 4s 11 13 mph 1013.3mb 61f 60f
10:50pm 2.5ft 5s 4s 13 16 mph 1013.7mb 61f 60f
9:50pm 2.5ft 5s 4s 13 16 mph 1013.8mb 61f 60f
8:50pm 3ft 4s 4s 18 20 mph 1013.6mb 61f 60f
7:50pm 3.5ft 6s 4s 16 20 mph 1013.4mb 61f 60f
6:50pm 3.5ft 5s 4s 18 22 mph 1013.4mb 61f 60f
5:50pm 3.5ft 5s 4s 20 22 mph 1013.4mb 60f 60f
4:50pm 4ft 5s 4s 20 25 mph 1013.3mb 60f 59f
3:50pm 4ft 5s 4s 22 25 mph 1013.2mb 60f 58f
2:50pm 3.5ft 5s 4s 20 25 mph 1013.3mb 61f 57f
1:50pm 4ft 6s 4s 22 27 mph 1012.9mb 61f 57f
12:50pm 4.5ft 6s 5s 20 25 mph 1013mb 61f 56f
11:50am 4.5ft 6s 4s 20 22 mph 1012.8mb 60f 56f
10:50am 4.5ft 6s 5s 20 25 mph 1012.3mb 61f 56f
9:50am 5.5ft 6s 5s 25 29 mph 1011.5mb 61f 56f
8:50am 5.5ft 6s 5s 25 31 mph 1010.7mb 61f 57f
7:50am 6ft 6s 5s 25 29 mph 1010.2mb 61f 57f
6:50am 6ft 6s 5s 27 31 mph 1008.9mb 61f 58f
5:50am 6ft 6s 5s 27 36 mph 1008.2mb 61f 58f
4:50am 5.5ft 5s 4s 29 38 mph 1007.3mb 61f 59f
3:50am 4.5ft 5s 4s 31 36 mph 1006.5mb 61f 60f
1:50am 3.5ft 4s 4s 20 25 mph 1005.5mb 61f 62f
12:50am 2.5ft 3s 3s 16 18 mph 1005.5mb 61f 62f
Sun 07/27 11:50pm 2ft 3s 3s 22 27 mph 1004.9mb 62f 61f
10:50pm 1.3ft 3s 3s 18 22 mph 1004.7mb 62f 62f
8:50pm 1.3ft 3s 3s 13 16 mph 1004.6mb 62f 61f
7:50pm 1.3ft 3s 3s 16 20 mph 1003.5mb 62f 60f
6:50pm 1.6ft 3s 3s 11
mph
1004.1mb 62f 61f
5:50pm 2ft 4s 3s 7 9 mph 1004.6mb 62f 61f
4:50pm 2ft 3s 3s 16 20 mph 1003.7mb 62f 61f
3:50pm 0.3ft  -  3s 20 31 mph 1003.7mb 63f 62f
2:50pm 0.3ft  -  3s 11 13 mph 1003.5mb 63f 63f
1:50pm 0.3ft  -  3s 7 9 mph 1004.2mb 63f 63f
12:50pm 0.3ft  -  3s 7 9 mph 1005.3mb 63f 62f
11:50am 0.3ft  -  3s 4
mph
1005.9mb 63f 63f
10:50am 0.3ft  -  3s 4 7 mph 1006.5mb 62f 63f
9:50am 0.7ft  -  3s 7 9 mph 1005.8mb 62f 63f
8:50am 0.7ft  -  3s 7 9 mph 1005.3mb 62f 63f
7:50am 0.7ft  -  3s 4
mph
1005.5mb 62f 63f
6:50am 0.7ft  -  3s 7
mph
1005.3mb 62f 63f
5:50am 1ft 3s 3s 9
mph
1005.4mb 62f 63f
4:50am 1ft 3s 3s 9 11 mph 1005.7mb 62f 64f
3:50am 1ft 3s 3s 9 11 mph 1005.9mb 62f 64f
2:50am 1.3ft 3s 3s 13 16 mph 1005.8mb 62f 64f
1:50am 1ft 3s 3s 9
mph
1005.6mb 62f 63f
12:50am 1ft 3s 3s 7 9 mph 1005.7mb 62f 64f
Sat 07/26 11:50pm 0.7ft  -  3s 11 13 mph 1005.7mb 62f 65f
10:50pm 0.7ft  -  3s 13 16 mph 1005.5mb 62f 68f
9:50pm 1ft 3s 3s 9
mph
1006.1mb 62f 66f
8:50pm 1ft 3s 3s 9 11 mph 1006.1mb 62f 66f
7:50pm 1ft 3s 3s 7
mph
1006.1mb 63f 65f
6:50pm 1ft 3s 3s 7 11 mph 1006.8mb 63f 66f